createdAt,value
2017-11-24T00:02:25.549Z,84.40
2017-11-24T00:04:53.153Z,84.40
2017-11-24T00:07:20.730Z,84.30
2017-11-24T00:09:48.334Z,84.40
2017-11-24T00:12:15.903Z,84.50
2017-11-24T00:14:43.512Z,84.30
2017-11-24T00:17:11.083Z,84.20
2017-11-24T00:19:38.778Z,84.10
2017-11-24T00:22:06.365Z,84.30
2017-11-24T00:24:33.977Z,84.10
2017-11-24T00:27:01.546Z,84.20
2017-11-24T00:29:29.146Z,84.20
2017-11-24T00:31:56.759Z,84.50
2017-11-24T00:34:24.365Z,84.60
2017-11-24T00:36:51.931Z,84.30
2017-11-24T00:39:20.450Z,84.40
2017-11-24T00:41:48.023Z,84.40
2017-11-24T00:44:15.627Z,84.40
2017-11-24T00:46:43.235Z,85.00
2017-11-24T00:49:10.847Z,84.50
2017-11-24T00:51:38.421Z,84.50
2017-11-24T00:54:06.022Z,84.40
2017-11-24T00:56:33.596Z,84.30
2017-11-24T00:59:01.977Z,84.30
2017-11-24T01:01:29.546Z,84.30
2017-11-24T01:03:57.923Z,84.20
2017-11-24T01:06:25.526Z,84.20
2017-11-24T01:08:53.151Z,84.20
2017-11-24T01:11:20.709Z,84.20
2017-11-24T01:13:48.349Z,84.20
2017-11-24T01:16:15.921Z,84.10
2017-11-24T01:18:43.507Z,84.10
2017-11-24T01:21:11.138Z,84.10
2017-11-24T01:23:38.891Z,84.10
2017-11-24T01:26:07.375Z,84.50
2017-11-24T01:28:35.709Z,85.10
2017-11-24T01:31:03.363Z,85.00
2017-11-24T01:33:30.943Z,85.30
2017-11-24T01:35:58.556Z,85.10
2017-11-24T01:38:26.130Z,85.00
2017-11-24T01:40:53.748Z,84.80
2017-11-24T01:43:22.103Z,84.70
2017-11-24T01:45:49.699Z,84.60
2017-11-24T01:48:18.038Z,84.60
2017-11-24T01:50:45.631Z,84.50
2017-11-24T01:53:13.954Z,84.70
2017-11-24T01:55:41.564Z,84.60
2017-11-24T01:58:09.895Z,84.30
2017-11-24T02:00:37.489Z,84.30
2017-11-24T02:03:05.102Z,84.40
2017-11-24T02:05:32.702Z,84.20
2017-11-24T02:08:00.269Z,84.30
2017-11-24T02:10:27.888Z,84.40
2017-11-24T02:12:55.472Z,84.30
2017-11-24T02:15:23.109Z,84.30
2017-11-24T02:17:50.675Z,84.60
2017-11-24T02:20:18.325Z,84.70
2017-11-24T02:22:45.902Z,84.80
2017-11-24T02:25:13.520Z,84.70
2017-11-24T02:27:41.846Z,84.90
2017-11-24T02:30:09.458Z,84.90
2017-11-24T02:32:37.349Z,85.20
2017-11-24T02:35:04.910Z,85.10
2017-11-24T02:37:32.511Z,85.30
2017-11-24T02:40:01.582Z,84.80
2017-11-24T02:42:29.212Z,84.80
2017-11-24T02:44:56.748Z,84.90
2017-11-24T02:47:24.359Z,85.00
2017-11-24T02:49:51.939Z,84.80
2017-11-24T02:52:19.588Z,84.30
2017-11-24T02:54:47.162Z,84.40
2017-11-24T02:57:14.765Z,84.50
2017-11-24T02:59:42.345Z,84.50
2017-11-24T03:02:09.955Z,84.50
2017-11-24T03:04:38.526Z,84.60
2017-11-24T03:07:06.132Z,84.70
2017-11-24T03:09:33.884Z,84.50
2017-11-24T03:12:02.263Z,84.50
2017-11-24T03:14:29.848Z,84.40
2017-11-24T03:16:57.457Z,84.80
2017-11-24T03:19:25.030Z,85.00
2017-11-24T03:21:52.618Z,84.60
2017-11-24T03:24:20.327Z,84.70
2017-11-24T03:26:47.920Z,85.00
2017-11-24T03:29:16.336Z,84.80
2017-11-24T03:31:43.938Z,84.80
2017-11-24T03:34:11.506Z,84.70
2017-11-24T03:36:39.894Z,84.70
2017-11-24T03:39:07.452Z,84.50
2017-11-24T03:41:35.806Z,85.00
2017-11-24T03:44:03.353Z,84.50
2017-11-24T03:46:30.954Z,84.70
2017-11-24T03:48:58.519Z,85.00
2017-11-24T03:51:26.887Z,85.40
2017-11-24T03:53:54.462Z,85.30
2017-11-24T03:56:22.796Z,85.40
2017-11-24T03:58:50.407Z,85.50
2017-11-24T04:01:18.099Z,85.40
2017-11-24T04:03:45.694Z,85.20
2017-11-24T04:06:13.271Z,85.20
2017-11-24T04:08:40.862Z,85.20
2017-11-24T04:11:08.428Z,85.10
2017-11-24T04:13:36.051Z,85.20
2017-11-24T04:16:03.650Z,85.10
2017-11-24T04:18:31.256Z,84.80
2017-11-24T04:20:58.806Z,84.90
2017-11-24T04:23:26.438Z,84.80
2017-11-24T04:25:54.010Z,84.90
2017-11-24T04:28:21.610Z,85.10
2017-11-24T04:30:49.186Z,84.80
2017-11-24T04:33:17.530Z,84.80
2017-11-24T04:35:45.250Z,84.70
2017-11-24T04:38:12.867Z,84.90
2017-11-24T04:40:41.066Z,84.90
2017-11-24T04:43:08.678Z,84.80
2017-11-24T04:45:36.255Z,84.80
2017-11-24T04:48:03.845Z,84.70
2017-11-24T04:50:32.449Z,84.70
2017-11-24T04:53:00.040Z,84.60
2017-11-24T04:55:27.614Z,84.60
2017-11-24T04:57:55.211Z,84.60
2017-11-24T05:00:22.778Z,84.60
2017-11-24T05:02:50.390Z,84.70
2017-11-24T05:05:17.960Z,84.70
2017-11-24T05:07:45.529Z,84.50
2017-11-24T05:10:13.911Z,84.70
2017-11-24T05:12:41.474Z,84.70
2017-11-24T05:15:09.870Z,84.80
2017-11-24T05:17:37.453Z,84.70
2017-11-24T05:20:05.032Z,84.70
2017-11-24T05:22:32.897Z,84.80
2017-11-24T05:25:00.607Z,84.70
2017-11-24T05:27:29.030Z,84.80
2017-11-24T05:29:56.619Z,84.70
2017-11-24T05:32:24.191Z,84.80
2017-11-24T05:34:51.809Z,84.80
2017-11-24T05:37:19.383Z,84.80
2017-11-24T05:39:47.049Z,85.00
2017-11-24T05:42:14.646Z,85.00
2017-11-24T05:44:42.986Z,85.30
2017-11-24T05:47:12.355Z,85.20
2017-11-24T05:49:39.927Z,85.20
2017-11-24T05:52:07.581Z,85.20
2017-11-24T05:54:35.411Z,85.30
2017-11-24T05:57:03.742Z,85.50
2017-11-24T05:59:31.351Z,85.40
2017-11-24T06:01:59.669Z,85.50
2017-11-24T06:04:27.312Z,85.40
2017-11-24T06:06:54.866Z,85.40
2017-11-24T06:09:22.418Z,85.30
2017-11-24T06:11:50.002Z,85.30
2017-11-24T06:14:17.565Z,85.30
2017-11-24T06:16:45.179Z,85.40
2017-11-24T06:19:13.511Z,85.20
2017-11-24T06:21:41.128Z,85.70
2017-11-24T06:24:09.442Z,85.30
2017-11-24T06:26:37.008Z,85.30
2017-11-24T06:29:05.066Z,85.50
2017-11-24T06:31:32.666Z,85.50
2017-11-24T06:34:00.296Z,85.60
2017-11-24T06:36:27.896Z,85.60
2017-11-24T06:38:55.501Z,85.70
2017-11-24T06:41:23.279Z,85.70
2017-11-24T06:43:51.038Z,85.90
2017-11-24T06:46:18.744Z,85.80
2017-11-24T06:48:46.362Z,85.90
2017-11-24T06:51:13.954Z,86.10
2017-11-24T06:53:43.116Z,86.10
2017-11-24T06:56:10.670Z,86.10
2017-11-24T06:58:38.283Z,86.10
2017-11-24T07:01:05.846Z,86.10
2017-11-24T07:03:34.247Z,85.80
2017-11-24T07:06:01.824Z,86.10
2017-11-24T07:08:29.662Z,86.20
2017-11-24T07:10:58.546Z,86.30
2017-11-24T07:13:26.930Z,86.10
2017-11-24T07:15:54.510Z,86.10
2017-11-24T07:18:22.079Z,86.30
2017-11-24T07:20:49.687Z,86.30
2017-11-24T07:23:18.878Z,86.20
2017-11-24T07:25:46.514Z,86.20
2017-11-24T07:28:14.174Z,86.10
2017-11-24T07:30:41.794Z,85.80
2017-11-24T07:33:09.414Z,85.50
2017-11-24T07:35:37.022Z,85.70
2017-11-24T07:38:05.355Z,85.20
2017-11-24T07:40:32.989Z,85.20
2017-11-24T07:43:00.690Z,85.70
2017-11-24T07:45:28.304Z,85.10
2017-11-24T07:47:55.874Z,85.00
2017-11-24T07:50:23.530Z,85.40
2017-11-24T07:52:51.103Z,84.60
2017-11-24T07:55:18.730Z,84.50
2017-11-24T07:57:46.307Z,84.40
2017-11-24T08:00:13.922Z,84.30
2017-11-24T08:02:41.488Z,84.10
2017-11-24T08:05:10.016Z,83.80
2017-11-24T08:07:37.578Z,83.80
2017-11-24T08:10:05.191Z,83.10
2017-11-24T08:12:32.755Z,83.10
2017-11-24T08:15:01.170Z,83.30
2017-11-24T08:17:28.749Z,83.20
2017-11-24T08:19:56.420Z,82.40
2017-11-24T08:22:23.982Z,81.90
2017-11-24T08:24:51.604Z,81.70
2017-11-24T08:27:19.174Z,81.60
2017-11-24T08:29:47.064Z,81.60
2017-11-24T08:32:14.628Z,81.50
2017-11-24T08:34:42.263Z,81.40
2017-11-24T08:37:09.836Z,80.90
2017-11-24T08:39:37.418Z,80.60
2017-11-24T08:42:05.059Z,80.60
2017-11-24T08:44:32.746Z,80.90
2017-11-24T08:47:06.338Z,81.00
2017-11-24T08:49:39.579Z,80.70
2017-11-24T08:52:07.986Z,80.30
2017-11-24T08:54:35.561Z,80.30
2017-11-24T08:57:03.134Z,80.40
2017-11-24T08:59:30.746Z,80.30
2017-11-24T09:01:58.326Z,80.60
2017-11-24T09:04:25.980Z,80.60
2017-11-24T09:06:53.565Z,80.50
2017-11-24T09:09:21.157Z,80.70
2017-11-24T09:11:48.776Z,80.70
2017-11-24T09:14:16.363Z,80.60
2017-11-24T09:16:43.998Z,80.60
2017-11-24T09:19:11.571Z,80.50
2017-11-24T09:21:39.158Z,80.50
2017-11-24T09:24:07.590Z,80.80
2017-11-24T09:26:35.174Z,80.80
2017-11-24T09:29:02.755Z,80.90
2017-11-24T09:31:31.157Z,81.10
2017-11-24T09:33:58.727Z,81.10
2017-11-24T09:36:26.333Z,81.60
2017-11-24T09:38:53.906Z,81.90
2017-11-24T09:41:21.454Z,81.90
2017-11-24T09:43:49.066Z,81.90
2017-11-24T09:46:16.638Z,81.90
2017-11-24T09:48:44.247Z,81.60
2017-11-24T09:51:11.812Z,81.20
2017-11-24T09:53:39.437Z,81.40
2017-11-24T09:56:07.214Z,80.70
2017-11-24T09:58:34.820Z,81.30
2017-11-24T10:01:02.391Z,80.50
2017-11-24T10:03:30.314Z,80.70
2017-11-24T10:05:57.898Z,81.10
2017-11-24T10:08:26.257Z,81.30
2017-11-24T10:10:53.839Z,81.30
2017-11-24T10:13:21.452Z,81.40
2017-11-24T10:15:49.023Z,81.20
2017-11-24T10:18:16.765Z,81.20
2017-11-24T10:20:49.976Z,81.20
2017-11-24T10:23:17.596Z,81.10
2017-11-24T10:25:45.174Z,80.90
2017-11-24T10:28:12.786Z,80.40
2017-11-24T10:30:41.199Z,80.30
2017-11-24T10:33:08.819Z,80.30
2017-11-24T10:35:36.455Z,80.30
2017-11-24T10:38:04.093Z,80.50
2017-11-24T10:40:31.678Z,80.00
2017-11-24T10:42:59.287Z,79.60
2017-11-24T10:45:26.861Z,80.20
2017-11-24T10:47:54.479Z,79.40
2017-11-24T10:50:22.041Z,79.40
2017-11-24T10:52:49.657Z,79.00
2017-11-24T10:55:17.250Z,79.10
2017-11-24T10:57:44.823Z,78.70
2017-11-24T11:00:12.452Z,78.70
2017-11-24T11:02:40.027Z,78.50
2017-11-24T11:05:07.678Z,78.20
2017-11-24T11:07:35.262Z,77.90
2017-11-24T11:10:02.861Z,77.60
2017-11-24T11:12:30.503Z,78.00
2017-11-24T11:14:58.102Z,77.40
2017-11-24T11:17:25.690Z,77.70
2017-11-24T11:19:53.295Z,77.60
2017-11-24T11:22:20.864Z,76.90
2017-11-24T11:24:48.466Z,76.80
2017-11-24T11:27:16.035Z,76.80
2017-11-24T11:29:43.641Z,76.90
2017-11-24T11:32:11.232Z,76.90
2017-11-24T11:34:38.850Z,77.50
2017-11-24T11:37:06.404Z,77.50
2017-11-24T11:39:34.020Z,76.90
2017-11-24T11:42:01.595Z,77.20
2017-11-24T11:44:29.197Z,76.90
2017-11-24T11:46:56.983Z,77.00
2017-11-24T11:49:24.590Z,77.00
2017-11-24T11:51:53.012Z,77.20
2017-11-24T11:54:20.599Z,77.60
2017-11-24T11:56:48.150Z,77.00
2017-11-24T11:59:15.762Z,77.10
2017-11-24T12:01:43.314Z,77.10
2017-11-24T12:04:11.684Z,77.30
2017-11-24T12:06:39.251Z,77.30
2017-11-24T12:09:07.882Z,77.00
2017-11-24T12:11:35.458Z,77.00
2017-11-24T12:14:03.079Z,76.90
2017-11-24T12:16:30.684Z,76.70
2017-11-24T12:18:58.258Z,77.00
2017-11-24T12:21:25.873Z,77.40
2017-11-24T12:23:53.446Z,77.40
2017-11-24T12:26:21.061Z,77.00
2017-11-24T12:28:48.628Z,77.20
2017-11-24T12:31:16.994Z,76.60
2017-11-24T12:33:44.573Z,76.70
2017-11-24T12:36:12.356Z,76.40
2017-11-24T12:38:39.922Z,76.40
2017-11-24T12:41:07.554Z,76.70
2017-11-24T12:43:35.900Z,76.40
2017-11-24T12:46:05.131Z,76.40
2017-11-24T12:48:33.470Z,76.50
2017-11-24T12:51:01.083Z,76.50
2017-11-24T12:53:28.658Z,76.40
2017-11-24T12:55:56.413Z,76.50
2017-11-24T12:58:23.989Z,77.10
2017-11-24T13:00:51.597Z,76.10
2017-11-24T13:03:19.285Z,76.40
2017-11-24T13:05:46.935Z,75.90
2017-11-24T13:08:14.518Z,75.90
2017-11-24T13:10:42.127Z,76.00
2017-11-24T13:13:09.697Z,76.00
2017-11-24T13:15:37.319Z,76.20
2017-11-24T13:18:04.893Z,76.10
2017-11-24T13:20:32.503Z,76.40
2017-11-24T13:23:00.074Z,76.10
2017-11-24T13:25:27.687Z,76.70
2017-11-24T13:27:55.262Z,77.00
2017-11-24T13:30:22.894Z,77.10
2017-11-24T13:32:50.502Z,77.30
2017-11-24T13:35:18.081Z,77.20
2017-11-24T13:37:46.414Z,77.10
2017-11-24T13:40:13.995Z,77.00
2017-11-24T13:42:41.619Z,76.70
2017-11-24T13:45:09.230Z,76.90
2017-11-24T13:47:36.880Z,77.20
2017-11-24T13:50:05.225Z,76.70
2017-11-24T13:52:32.894Z,76.70
2017-11-24T13:55:00.490Z,77.20
2017-11-24T13:57:28.124Z,77.00
2017-11-24T13:59:56.470Z,77.20
2017-11-24T14:02:24.283Z,77.10
2017-11-24T14:04:51.855Z,77.10
2017-11-24T14:07:19.465Z,77.10
2017-11-24T14:09:47.052Z,77.10
2017-11-24T14:12:15.422Z,77.20
2017-11-24T14:14:42.993Z,77.10
2017-11-24T14:17:11.374Z,77.10
2017-11-24T14:19:38.950Z,77.10
2017-11-24T14:22:06.655Z,77.10
2017-11-24T14:24:34.230Z,77.10
2017-11-24T14:27:01.867Z,77.10
2017-11-24T14:29:29.453Z,77.00
2017-11-24T14:31:57.054Z,77.00
2017-11-24T14:34:24.624Z,77.00
2017-11-24T14:36:52.302Z,77.00
2017-11-24T14:39:19.909Z,76.90
2017-11-24T14:41:47.519Z,76.90
2017-11-24T14:44:15.138Z,76.90
2017-11-24T14:46:42.787Z,77.20
2017-11-24T14:49:11.127Z,77.10
2017-11-24T14:51:38.920Z,77.10
2017-11-24T14:54:07.274Z,76.90
2017-11-24T14:56:34.857Z,77.00
2017-11-24T14:59:02.890Z,76.90
2017-11-24T15:01:30.440Z,77.00
2017-11-24T15:03:58.455Z,76.90
2017-11-24T15:06:26.024Z,76.90
2017-11-24T15:08:53.646Z,76.90
2017-11-24T15:11:21.214Z,77.40
2017-11-24T15:13:48.837Z,77.40
2017-11-24T15:16:16.414Z,77.70
2017-11-24T15:18:44.031Z,77.50
2017-11-24T15:21:12.371Z,77.70
2017-11-24T15:23:40.136Z,77.70
2017-11-24T15:26:07.718Z,78.30
2017-11-24T15:28:35.334Z,78.10
2017-11-24T15:31:02.909Z,78.30
2017-11-24T15:33:30.527Z,78.80
2017-11-24T15:35:58.078Z,78.90
2017-11-24T15:38:26.558Z,78.80
2017-11-24T15:40:55.044Z,78.80
2017-11-24T15:43:23.469Z,78.70
2017-11-24T15:45:51.155Z,78.60
2017-11-24T15:48:18.767Z,78.80
2017-11-24T15:50:46.339Z,78.80
2017-11-24T15:53:13.960Z,79.10
2017-11-24T15:55:42.792Z,79.50
2017-11-24T15:58:10.385Z,79.40
2017-11-24T16:00:37.968Z,79.40
2017-11-24T16:03:06.367Z,79.70
2017-11-24T16:05:33.957Z,79.50
2017-11-24T16:08:01.578Z,79.60
2017-11-24T16:10:29.923Z,80.10
2017-11-24T16:12:57.571Z,80.10
2017-11-24T16:15:25.164Z,80.20
2017-11-24T16:17:52.733Z,80.20
2017-11-24T16:20:20.383Z,80.40
2017-11-24T16:22:48.725Z,80.20
2017-11-24T16:25:16.332Z,80.20
2017-11-24T16:27:43.914Z,80.40
2017-11-24T16:30:11.530Z,80.50
2017-11-24T16:32:39.112Z,80.50
2017-11-24T16:35:06.991Z,80.40
2017-11-24T16:37:34.576Z,80.40
2017-11-24T16:40:02.239Z,80.60
2017-11-24T16:42:29.964Z,80.40
2017-11-24T16:44:57.594Z,80.00
2017-11-24T16:47:25.165Z,80.00
2017-11-24T16:49:52.903Z,80.00
2017-11-24T16:52:20.515Z,80.10
2017-11-24T16:54:48.882Z,80.10
2017-11-24T16:57:16.466Z,80.00
2017-11-24T16:59:44.098Z,80.00
2017-11-24T17:02:12.457Z,80.50
2017-11-24T17:04:40.068Z,80.20
2017-11-24T17:07:07.643Z,79.90
2017-11-24T17:09:36.128Z,80.00
2017-11-24T17:12:03.702Z,80.30
2017-11-24T17:14:31.964Z,80.20
2017-11-24T17:16:59.539Z,80.10
2017-11-24T17:19:27.138Z,80.20
2017-11-24T17:21:54.742Z,80.30
2017-11-24T17:24:22.353Z,80.20
2017-11-24T17:26:50.694Z,79.70
2017-11-24T17:29:18.356Z,79.60
2017-11-24T17:31:45.936Z,80.00
2017-11-24T17:34:13.520Z,80.40
2017-11-24T17:36:41.128Z,80.20
2017-11-24T17:39:08.695Z,80.60
2017-11-24T17:41:36.331Z,81.00
2017-11-24T17:44:03.911Z,81.70
2017-11-24T17:46:31.563Z,82.70
2017-11-24T17:48:59.232Z,83.10
2017-11-24T17:51:26.854Z,83.50
2017-11-24T17:53:55.207Z,83.90
2017-11-24T17:56:22.833Z,83.80
2017-11-24T17:58:50.423Z,83.80
2017-11-24T18:01:18.037Z,83.70
2017-11-24T18:03:45.601Z,83.70
2017-11-24T18:06:13.419Z,83.70
2017-11-24T18:08:40.987Z,84.10
2017-11-24T18:11:08.613Z,85.00
2017-11-24T18:13:36.881Z,85.50
2017-11-24T18:16:04.475Z,85.60
2017-11-24T18:18:32.104Z,86.00
2017-11-24T18:20:59.722Z,87.40
2017-11-24T18:23:27.272Z,87.60
2017-11-24T18:25:55.628Z,88.70
2017-11-24T18:28:23.204Z,88.70
2017-11-24T18:30:51.575Z,89.70
2017-11-24T18:33:19.296Z,89.70
2017-11-24T18:35:46.900Z,89.90
2017-11-24T18:38:14.473Z,90.00
2017-11-24T18:40:42.883Z,90.10
2017-11-24T18:43:10.444Z,90.10
2017-11-24T18:45:38.072Z,90.00
2017-11-24T18:48:06.427Z,90.10
2017-11-24T18:50:35.586Z,90.10
2017-11-24T18:53:04.147Z,90.10
2017-11-24T18:55:31.902Z,90.30
2017-11-24T18:57:59.530Z,90.30
2017-11-24T19:00:27.122Z,90.40
2017-11-24T19:02:55.488Z,90.80
2017-11-24T19:05:23.227Z,90.70
2017-11-24T19:07:50.847Z,90.70
2017-11-24T19:10:18.402Z,90.70
2017-11-24T19:12:46.003Z,90.70
2017-11-24T19:15:13.583Z,91.10
2017-11-24T19:17:41.420Z,90.70
2017-11-24T19:20:09.020Z,90.60
2017-11-24T19:22:37.390Z,90.60
2017-11-24T19:25:04.965Z,90.60
2017-11-24T19:27:33.348Z,91.00
2017-11-24T19:30:00.907Z,90.90
2017-11-24T19:32:28.522Z,90.90
2017-11-24T19:34:56.093Z,91.10
2017-11-24T19:37:23.734Z,91.30
2017-11-24T19:39:51.312Z,91.60
2017-11-24T19:42:18.907Z,91.90
2017-11-24T19:44:46.478Z,92.00
2017-11-24T19:47:14.355Z,92.00
2017-11-24T19:49:41.917Z,92.10
2017-11-24T19:52:09.531Z,91.90
2017-11-24T19:54:37.114Z,92.10
2017-11-24T19:57:05.510Z,91.70
2017-11-24T19:59:33.838Z,91.70
2017-11-24T20:02:01.468Z,91.80
2017-11-24T20:04:29.057Z,91.60
2017-11-24T20:06:56.692Z,91.40
2017-11-24T20:09:24.307Z,91.60
2017-11-24T20:11:52.914Z,90.80
2017-11-24T20:14:20.504Z,90.80
2017-11-24T20:16:48.182Z,90.80
2017-11-24T20:19:15.803Z,90.90
2017-11-24T20:21:43.424Z,90.80
2017-11-24T20:24:11.809Z,90.90
2017-11-24T20:26:39.386Z,90.80
2017-11-24T20:29:07.038Z,91.00
2017-11-24T20:31:35.412Z,91.00
2017-11-24T20:34:03.023Z,91.00
2017-11-24T20:36:30.626Z,90.70
2017-11-24T20:38:59.011Z,91.20
2017-11-24T20:41:26.597Z,91.20
2017-11-24T20:43:54.509Z,90.90
2017-11-24T20:46:22.131Z,90.70
2017-11-24T20:48:50.554Z,90.80
2017-11-24T20:51:18.170Z,91.10
2017-11-24T20:53:45.806Z,91.30
2017-11-24T20:56:13.401Z,91.20
2017-11-24T20:58:41.011Z,91.30
2017-11-24T21:01:09.371Z,91.50
2017-11-24T21:03:36.990Z,91.20
2017-11-24T21:06:04.611Z,91.10
2017-11-24T21:08:32.995Z,91.40
2017-11-24T21:11:00.575Z,91.70
2017-11-24T21:13:28.223Z,91.20
2017-11-24T21:15:56.569Z,91.40
2017-11-24T21:18:25.241Z,91.40
2017-11-24T21:20:53.136Z,91.00
2017-11-24T21:23:20.776Z,91.10
2017-11-24T21:25:50.114Z,91.60
2017-11-24T21:28:18.475Z,91.60
2017-11-24T21:30:46.049Z,91.50
2017-11-24T21:33:13.695Z,91.70
2017-11-24T21:35:41.300Z,91.50
2017-11-24T21:38:09.157Z,91.70
2017-11-24T21:40:36.825Z,91.90
2017-11-24T21:43:04.389Z,91.40
2017-11-24T21:45:32.125Z,91.80
2017-11-24T21:48:00.483Z,92.10
2017-11-24T21:50:28.097Z,92.10
2017-11-24T21:52:55.663Z,91.70
2017-11-24T21:55:23.278Z,91.50
2017-11-24T21:57:50.852Z,91.40
2017-11-24T22:00:19.228Z,91.80
2017-11-24T22:02:47.203Z,91.80
2017-11-24T22:05:14.858Z,91.80
2017-11-24T22:07:43.210Z,91.80
2017-11-24T22:10:10.950Z,91.80
2017-11-24T22:12:38.531Z,91.80
2017-11-24T22:15:06.135Z,91.70
2017-11-24T22:17:33.743Z,91.60
2017-11-24T22:20:01.452Z,91.70
2017-11-24T22:22:29.054Z,91.80
2017-11-24T22:24:56.898Z,92.30
2017-11-24T22:27:24.531Z,92.20
2017-11-24T22:29:52.170Z,92.20
2017-11-24T22:32:19.763Z,92.40
2017-11-24T22:34:47.711Z,92.80
2017-11-24T22:37:15.278Z,93.10
2017-11-24T22:39:43.655Z,92.90
2017-11-24T22:42:11.232Z,92.90
2017-11-24T22:44:38.850Z,93.50
2017-11-24T22:47:06.464Z,93.60
2017-11-24T22:49:34.935Z,93.50
2017-11-24T22:52:02.580Z,93.90
2017-11-24T22:54:30.224Z,93.70
2017-11-24T22:56:57.791Z,94.00
2017-11-24T22:59:26.124Z,93.70
2017-11-24T23:01:53.783Z,93.70
2017-11-24T23:04:21.384Z,94.40
2017-11-24T23:06:49.774Z,94.40
2017-11-24T23:09:17.359Z,94.40
2017-11-24T23:11:44.953Z,94.10
2017-11-24T23:14:12.658Z,94.10
2017-11-24T23:16:41.035Z,94.40
2017-11-24T23:19:08.649Z,94.40
2017-11-24T23:21:36.227Z,94.40
2017-11-24T23:24:03.818Z,94.40
2017-11-24T23:26:31.431Z,94.40
2017-11-24T23:28:59.010Z,94.40
2017-11-24T23:31:26.634Z,94.00
2017-11-24T23:33:54.239Z,94.00
2017-11-24T23:36:23.631Z,94.10
2017-11-24T23:38:51.217Z,94.10
2017-11-24T23:41:18.821Z,94.00
2017-11-24T23:43:46.473Z,94.00
2017-11-24T23:46:14.054Z,94.00
2017-11-24T23:48:41.662Z,94.00
2017-11-24T23:51:09.230Z,94.00
2017-11-24T23:53:37.883Z,94.40
2017-11-24T23:56:05.465Z,94.40
2017-11-24T23:58:33.037Z,94.00
